sensor_id;sensor_type;location;lat;lon;timestamp;P1;durP1;ratioP1;P2;durP2;ratioP2
36257;SDS011;22294;52.044;4.582;2022-09-21T00:00:48;5.57;;;2.22;;
36257;SDS011;22294;52.044;4.582;2022-09-21T00:03:14;6.60;;;1.52;;
36257;SDS011;22294;52.044;4.582;2022-09-21T00:05:40;8.15;;;2.08;;
36257;SDS011;22294;52.044;4.582;2022-09-21T00:08:06;5.57;;;2.42;;
36257;SDS011;22294;52.044;4.582;2022-09-21T00:10:33;7.88;;;2.30;;
36257;SDS011;22294;52.044;4.582;2022-09-21T00:12:58;6.05;;;2.13;;
36257;SDS011;22294;52.044;4.582;2022-09-21T00:15:27;6.75;;;2.15;;
36257;SDS011;22294;52.044;4.582;2022-09-21T00:17:54;6.15;;;2.35;;
36257;SDS011;22294;52.044;4.582;2022-09-21T00:20:21;8.98;;;2.45;;
36257;SDS011;22294;52.044;4.582;2022-09-21T00:22:47;4.38;;;2.00;;
36257;SDS011;22294;52.044;4.582;2022-09-21T00:25:13;8.35;;;2.45;;
36257;SDS011;22294;52.044;4.582;2022-09-21T00:27:39;5.88;;;2.00;;
36257;SDS011;22294;52.044;4.582;2022-09-21T00:30:05;6.13;;;3.08;;
36257;SDS011;22294;52.044;4.582;2022-09-21T00:32:32;5.45;;;2.28;;
36257;SDS011;22294;52.044;4.582;2022-09-21T00:35:00;6.53;;;2.35;;
36257;SDS011;22294;52.044;4.582;2022-09-21T00:37:27;5.82;;;2.22;;
36257;SDS011;22294;52.044;4.582;2022-09-21T00:39:53;5.68;;;2.28;;
36257;SDS011;22294;52.044;4.582;2022-09-21T00:42:20;4.85;;;2.55;;
36257;SDS011;22294;52.044;4.582;2022-09-21T00:44:46;8.93;;;2.55;;
36257;SDS011;22294;52.044;4.582;2022-09-21T00:47:12;6.47;;;1.95;;
36257;SDS011;22294;52.044;4.582;2022-09-21T00:49:40;5.75;;;2.60;;
36257;SDS011;22294;52.044;4.582;2022-09-21T00:52:09;6.80;;;2.67;;
36257;SDS011;22294;52.044;4.582;2022-09-21T00:55:12;5.65;;;2.40;;
36257;SDS011;22294;52.044;4.582;2022-09-21T00:57:34;5.18;;;2.20;;
36257;SDS011;22294;52.044;4.582;2022-09-21T01:00:01;8.10;;;2.55;;
36257;SDS011;22294;52.044;4.582;2022-09-21T01:02:28;6.22;;;2.35;;
36257;SDS011;22294;52.044;4.582;2022-09-21T01:04:54;5.55;;;2.40;;
36257;SDS011;22294;52.044;4.582;2022-09-21T01:07:24;3.72;;;1.90;;
36257;SDS011;22294;52.044;4.582;2022-09-21T01:09:55;4.07;;;2.13;;
36257;SDS011;22294;52.044;4.582;2022-09-21T01:18:27;7.53;;;2.83;;
36257;SDS011;22294;52.044;4.582;2022-09-21T01:29:01;7.13;;;2.33;;
36257;SDS011;22294;52.044;4.582;2022-09-21T01:34:04;5.45;;;2.38;;
36257;SDS011;22294;52.044;4.582;2022-09-21T01:36:34;5.60;;;2.28;;
36257;SDS011;22294;52.044;4.582;2022-09-21T01:39:04;3.47;;;1.95;;
36257;SDS011;22294;52.044;4.582;2022-09-21T01:41:34;6.53;;;2.28;;
36257;SDS011;22294;52.044;4.582;2022-09-21T01:44:09;6.65;;;2.10;;
36257;SDS011;22294;52.044;4.582;2022-09-21T01:46:38;4.15;;;2.38;;
36257;SDS011;22294;52.044;4.582;2022-09-21T01:49:14;4.38;;;1.98;;
36257;SDS011;22294;52.044;4.582;2022-09-21T01:51:45;6.85;;;2.35;;
36257;SDS011;22294;52.044;4.582;2022-09-21T01:54:20;7.82;;;2.20;;
36257;SDS011;22294;52.044;4.582;2022-09-21T01:56:50;4.82;;;2.20;;
36257;SDS011;22294;52.044;4.582;2022-09-21T02:02:11;3.72;;;2.38;;
36257;SDS011;22294;52.044;4.582;2022-09-21T02:04:41;3.95;;;2.50;;
36257;SDS011;22294;52.044;4.582;2022-09-21T02:07:07;5.53;;;2.95;;
36257;SDS011;22294;52.044;4.582;2022-09-21T02:09:33;8.48;;;2.97;;
36257;SDS011;22294;52.044;4.582;2022-09-21T02:12:01;7.57;;;2.72;;
36257;SDS011;22294;52.044;4.582;2022-09-21T02:14:26;4.78;;;2.72;;
36257;SDS011;22294;52.044;4.582;2022-09-21T02:28:25;4.95;;;2.20;;
36257;SDS011;22294;52.044;4.582;2022-09-21T02:33:57;6.18;;;2.97;;
36257;SDS011;22294;52.044;4.582;2022-09-21T02:38:56;4.60;;;2.40;;
36257;SDS011;22294;52.044;4.582;2022-09-21T02:41:51;4.82;;;2.60;;
36257;SDS011;22294;52.044;4.582;2022-09-21T02:44:25;4.03;;;2.40;;
36257;SDS011;22294;52.044;4.582;2022-09-21T02:47:06;6.65;;;2.65;;
36257;SDS011;22294;52.044;4.582;2022-09-21T02:49:38;5.10;;;2.72;;
36257;SDS011;22294;52.044;4.582;2022-09-21T02:52:10;7.82;;;2.60;;
36257;SDS011;22294;52.044;4.582;2022-09-21T02:54:38;4.83;;;2.63;;
36257;SDS011;22294;52.044;4.582;2022-09-21T02:57:06;7.70;;;2.75;;
36257;SDS011;22294;52.044;4.582;2022-09-21T02:59:36;4.43;;;2.65;;
36257;SDS011;22294;52.044;4.582;2022-09-21T03:02:02;5.50;;;2.83;;
36257;SDS011;22294;52.044;4.582;2022-09-21T03:04:29;6.95;;;2.72;;
36257;SDS011;22294;52.044;4.582;2022-09-21T03:06:55;4.88;;;2.50;;
36257;SDS011;22294;52.044;4.582;2022-09-21T03:09:21;5.05;;;2.63;;
36257;SDS011;22294;52.044;4.582;2022-09-21T03:11:48;6.32;;;3.08;;
36257;SDS011;22294;52.044;4.582;2022-09-21T03:14:14;6.45;;;2.60;;
36257;SDS011;22294;52.044;4.582;2022-09-21T03:16:40;3.35;;;2.15;;
36257;SDS011;22294;52.044;4.582;2022-09-21T03:19:05;5.75;;;2.70;;
36257;SDS011;22294;52.044;4.582;2022-09-21T03:21:30;4.40;;;2.80;;
36257;SDS011;22294;52.044;4.582;2022-09-21T03:23:56;7.75;;;2.70;;
36257;SDS011;22294;52.044;4.582;2022-09-21T03:26:21;4.95;;;2.33;;
36257;SDS011;22294;52.044;4.582;2022-09-21T03:28:47;8.05;;;2.90;;
36257;SDS011;22294;52.044;4.582;2022-09-21T03:31:13;5.55;;;2.50;;
36257;SDS011;22294;52.044;4.582;2022-09-21T03:33:38;5.43;;;2.47;;
36257;SDS011;22294;52.044;4.582;2022-09-21T03:36:04;13.77;;;3.17;;
36257;SDS011;22294;52.044;4.582;2022-09-21T03:38:29;4.80;;;2.60;;
36257;SDS011;22294;52.044;4.582;2022-09-21T03:40:55;4.43;;;2.70;;
36257;SDS011;22294;52.044;4.582;2022-09-21T03:43:21;6.32;;;2.72;;
36257;SDS011;22294;52.044;4.582;2022-09-21T03:45:47;4.65;;;3.20;;
36257;SDS011;22294;52.044;4.582;2022-09-21T03:48:13;4.50;;;2.22;;
36257;SDS011;22294;52.044;4.582;2022-09-21T03:50:39;6.63;;;2.80;;
36257;SDS011;22294;52.044;4.582;2022-09-21T03:53:05;4.88;;;2.35;;
36257;SDS011;22294;52.044;4.582;2022-09-21T03:55:31;3.33;;;2.95;;
36257;SDS011;22294;52.044;4.582;2022-09-21T03:57:57;5.18;;;2.67;;
36257;SDS011;22294;52.044;4.582;2022-09-21T04:00:22;6.40;;;2.72;;
36257;SDS011;22294;52.044;4.582;2022-09-21T04:02:47;5.03;;;2.70;;
36257;SDS011;22294;52.044;4.582;2022-09-21T04:05:13;5.15;;;2.95;;
36257;SDS011;22294;52.044;4.582;2022-09-21T04:07:40;6.07;;;2.60;;
36257;SDS011;22294;52.044;4.582;2022-09-21T04:10:10;6.43;;;2.63;;
36257;SDS011;22294;52.044;4.582;2022-09-21T04:12:39;5.88;;;2.92;;
36257;SDS011;22294;52.044;4.582;2022-09-21T04:15:12;3.00;;;2.35;;
36257;SDS011;22294;52.044;4.582;2022-09-21T04:17:39;4.20;;;2.95;;
36257;SDS011;22294;52.044;4.582;2022-09-21T04:20:05;6.70;;;2.40;;
36257;SDS011;22294;52.044;4.582;2022-09-21T04:22:32;5.68;;;3.00;;
36257;SDS011;22294;52.044;4.582;2022-09-21T04:24:58;5.13;;;2.72;;
36257;SDS011;22294;52.044;4.582;2022-09-21T04:27:24;6.97;;;4.20;;
36257;SDS011;22294;52.044;4.582;2022-09-21T04:29:49;8.15;;;2.53;;
36257;SDS011;22294;52.044;4.582;2022-09-21T04:32:15;4.05;;;2.50;;
36257;SDS011;22294;52.044;4.582;2022-09-21T04:34:40;3.65;;;2.28;;
36257;SDS011;22294;52.044;4.582;2022-09-21T04:37:06;2.85;;;1.98;;
36257;SDS011;22294;52.044;4.582;2022-09-21T04:39:37;4.43;;;2.10;;
36257;SDS011;22294;52.044;4.582;2022-09-21T04:42:03;3.28;;;1.85;;
36257;SDS011;22294;52.044;4.582;2022-09-21T04:44:29;4.57;;;2.00;;
36257;SDS011;22294;52.044;4.582;2022-09-21T04:46:55;6.55;;;2.60;;
36257;SDS011;22294;52.044;4.582;2022-09-21T04:49:21;5.63;;;1.92;;
36257;SDS011;22294;52.044;4.582;2022-09-21T04:51:46;3.13;;;1.80;;
36257;SDS011;22294;52.044;4.582;2022-09-21T04:54:11;6.30;;;2.17;;
36257;SDS011;22294;52.044;4.582;2022-09-21T04:56:37;4.55;;;2.00;;
36257;SDS011;22294;52.044;4.582;2022-09-21T04:59:03;2.80;;;1.90;;
36257;SDS011;22294;52.044;4.582;2022-09-21T05:01:29;5.50;;;2.33;;
36257;SDS011;22294;52.044;4.582;2022-09-21T05:03:54;3.70;;;2.00;;
36257;SDS011;22294;52.044;4.582;2022-09-21T05:06:19;4.70;;;1.95;;
36257;SDS011;22294;52.044;4.582;2022-09-21T05:08:44;3.67;;;2.28;;
36257;SDS011;22294;52.044;4.582;2022-09-21T05:11:28;5.75;;;2.60;;
36257;SDS011;22294;52.044;4.582;2022-09-21T05:13:54;7.32;;;2.42;;
36257;SDS011;22294;52.044;4.582;2022-09-21T05:16:19;9.05;;;2.65;;
36257;SDS011;22294;52.044;4.582;2022-09-21T05:18:44;9.68;;;3.33;;
36257;SDS011;22294;52.044;4.582;2022-09-21T05:21:10;9.32;;;3.55;;
36257;SDS011;22294;52.044;4.582;2022-09-21T05:23:37;10.50;;;2.90;;
36257;SDS011;22294;52.044;4.582;2022-09-21T05:26:03;6.57;;;3.50;;
36257;SDS011;22294;52.044;4.582;2022-09-21T05:28:29;7.80;;;3.85;;
36257;SDS011;22294;52.044;4.582;2022-09-21T05:31:11;9.18;;;3.63;;
36257;SDS011;22294;52.044;4.582;2022-09-21T05:33:41;7.65;;;3.17;;
36257;SDS011;22294;52.044;4.582;2022-09-21T05:39:03;6.47;;;3.88;;
36257;SDS011;22294;52.044;4.582;2022-09-21T05:41:29;11.02;;;4.85;;
36257;SDS011;22294;52.044;4.582;2022-09-21T05:43:55;6.38;;;4.03;;
36257;SDS011;22294;52.044;4.582;2022-09-21T05:46:34;8.65;;;4.85;;
36257;SDS011;22294;52.044;4.582;2022-09-21T05:49:02;11.75;;;4.55;;
36257;SDS011;22294;52.044;4.582;2022-09-21T05:51:37;7.50;;;4.40;;
36257;SDS011;22294;52.044;4.582;2022-09-21T05:54:08;8.80;;;4.13;;
36257;SDS011;22294;52.044;4.582;2022-09-21T06:04:43;6.65;;;3.25;;
36257;SDS011;22294;52.044;4.582;2022-09-21T06:07:08;4.85;;;3.50;;
36257;SDS011;22294;52.044;4.582;2022-09-21T06:09:34;8.40;;;3.42;;
36257;SDS011;22294;52.044;4.582;2022-09-21T06:11:59;6.85;;;5.43;;
36257;SDS011;22294;52.044;4.582;2022-09-21T06:14:24;6.80;;;5.00;;
36257;SDS011;22294;52.044;4.582;2022-09-21T06:16:50;6.03;;;3.75;;
36257;SDS011;22294;52.044;4.582;2022-09-21T06:19:16;14.70;;;3.88;;
36257;SDS011;22294;52.044;4.582;2022-09-21T06:21:42;11.40;;;4.40;;
36257;SDS011;22294;52.044;4.582;2022-09-21T06:24:08;10.20;;;3.92;;
36257;SDS011;22294;52.044;4.582;2022-09-21T06:26:34;7.93;;;3.63;;
36257;SDS011;22294;52.044;4.582;2022-09-21T06:28:59;10.77;;;4.53;;
36257;SDS011;22294;52.044;4.582;2022-09-21T06:31:25;11.55;;;4.63;;
36257;SDS011;22294;52.044;4.582;2022-09-21T06:33:51;10.45;;;4.55;;
36257;SDS011;22294;52.044;4.582;2022-09-21T06:36:16;13.90;;;5.07;;
36257;SDS011;22294;52.044;4.582;2022-09-21T06:38:41;7.28;;;4.32;;
36257;SDS011;22294;52.044;4.582;2022-09-21T06:41:07;9.43;;;8.02;;
36257;SDS011;22294;52.044;4.582;2022-09-21T06:43:32;10.43;;;7.57;;
36257;SDS011;22294;52.044;4.582;2022-09-21T06:45:58;9.63;;;6.75;;
36257;SDS011;22294;52.044;4.582;2022-09-21T06:48:25;9.95;;;5.88;;
36257;SDS011;22294;52.044;4.582;2022-09-21T06:50:58;13.90;;;6.40;;
36257;SDS011;22294;52.044;4.582;2022-09-21T06:53:31;17.65;;;7.18;;
36257;SDS011;22294;52.044;4.582;2022-09-21T06:56:04;11.52;;;6.63;;
36257;SDS011;22294;52.044;4.582;2022-09-21T06:58:31;16.73;;;6.72;;
36257;SDS011;22294;52.044;4.582;2022-09-21T07:01:02;14.98;;;7.10;;
36257;SDS011;22294;52.044;4.582;2022-09-21T07:03:31;10.35;;;5.60;;
36257;SDS011;22294;52.044;4.582;2022-09-21T07:05:57;9.43;;;6.07;;
36257;SDS011;22294;52.044;4.582;2022-09-21T07:08:22;12.70;;;5.97;;
36257;SDS011;22294;52.044;4.582;2022-09-21T07:10:48;9.23;;;4.80;;
36257;SDS011;22294;52.044;4.582;2022-09-21T07:13:13;9.40;;;5.35;;
36257;SDS011;22294;52.044;4.582;2022-09-21T07:15:40;11.93;;;5.18;;
36257;SDS011;22294;52.044;4.582;2022-09-21T07:18:12;8.45;;;4.35;;
36257;SDS011;22294;52.044;4.582;2022-09-21T07:20:38;8.63;;;4.20;;
36257;SDS011;22294;52.044;4.582;2022-09-21T07:23:11;10.38;;;4.88;;
36257;SDS011;22294;52.044;4.582;2022-09-21T07:25:39;11.75;;;5.60;;
36257;SDS011;22294;52.044;4.582;2022-09-21T07:28:08;16.00;;;5.80;;
36257;SDS011;22294;52.044;4.582;2022-09-21T07:30:34;14.60;;;5.85;;
36257;SDS011;22294;52.044;4.582;2022-09-21T07:33:01;10.45;;;5.70;;
36257;SDS011;22294;52.044;4.582;2022-09-21T07:35:27;10.70;;;5.85;;
36257;SDS011;22294;52.044;4.582;2022-09-21T07:37:52;11.00;;;4.80;;
36257;SDS011;22294;52.044;4.582;2022-09-21T07:40:20;15.15;;;5.45;;
36257;SDS011;22294;52.044;4.582;2022-09-21T07:42:45;13.07;;;5.07;;
36257;SDS011;22294;52.044;4.582;2022-09-21T07:45:11;9.27;;;3.78;;
36257;SDS011;22294;52.044;4.582;2022-09-21T07:47:36;14.23;;;4.00;;
36257;SDS011;22294;52.044;4.582;2022-09-21T07:50:01;9.43;;;3.25;;
36257;SDS011;22294;52.044;4.582;2022-09-21T07:52:27;8.88;;;3.03;;
36257;SDS011;22294;52.044;4.582;2022-09-21T07:54:52;9.80;;;2.75;;
36257;SDS011;22294;52.044;4.582;2022-09-21T07:57:17;10.25;;;3.03;;
36257;SDS011;22294;52.044;4.582;2022-09-21T08:00:02;8.23;;;2.50;;
36257;SDS011;22294;52.044;4.582;2022-09-21T08:02:29;7.13;;;2.38;;
36257;SDS011;22294;52.044;4.582;2022-09-21T08:04:54;7.57;;;2.40;;
36257;SDS011;22294;52.044;4.582;2022-09-21T08:07:19;7.88;;;2.40;;
36257;SDS011;22294;52.044;4.582;2022-09-21T08:09:45;8.25;;;2.47;;
36257;SDS011;22294;52.044;4.582;2022-09-21T08:12:13;5.15;;;2.08;;
36257;SDS011;22294;52.044;4.582;2022-09-21T08:14:39;6.32;;;2.13;;
36257;SDS011;22294;52.044;4.582;2022-09-21T08:17:05;5.25;;;1.88;;
36257;SDS011;22294;52.044;4.582;2022-09-21T08:19:30;8.27;;;1.83;;
36257;SDS011;22294;52.044;4.582;2022-09-21T08:21:57;9.00;;;1.75;;
36257;SDS011;22294;52.044;4.582;2022-09-21T08:24:22;9.48;;;1.67;;
36257;SDS011;22294;52.044;4.582;2022-09-21T08:26:50;4.53;;;1.30;;
36257;SDS011;22294;52.044;4.582;2022-09-21T08:29:16;6.55;;;1.63;;
36257;SDS011;22294;52.044;4.582;2022-09-21T08:31:41;6.80;;;1.58;;
36257;SDS011;22294;52.044;4.582;2022-09-21T08:34:07;8.93;;;1.45;;
36257;SDS011;22294;52.044;4.582;2022-09-21T08:36:32;4.38;;;1.10;;
36257;SDS011;22294;52.044;4.582;2022-09-21T08:38:58;5.97;;;1.20;;
36257;SDS011;22294;52.044;4.582;2022-09-21T08:41:25;5.63;;;1.40;;
36257;SDS011;22294;52.044;4.582;2022-09-21T08:47:15;5.47;;;1.23;;
36257;SDS011;22294;52.044;4.582;2022-09-21T08:49:45;3.80;;;0.88;;
36257;SDS011;22294;52.044;4.582;2022-09-21T08:52:18;6.70;;;1.10;;
36257;SDS011;22294;52.044;4.582;2022-09-21T08:57:13;6.05;;;1.58;;
36257;SDS011;22294;52.044;4.582;2022-09-21T08:59:40;6.15;;;1.02;;
36257;SDS011;22294;52.044;4.582;2022-09-21T09:13:28;4.75;;;1.13;;
36257;SDS011;22294;52.044;4.582;2022-09-21T09:29:15;4.53;;;1.05;;
36257;SDS011;22294;52.044;4.582;2022-09-21T09:31:48;7.75;;;1.60;;
36257;SDS011;22294;52.044;4.582;2022-09-21T09:34:29;3.70;;;1.17;;
36257;SDS011;22294;52.044;4.582;2022-09-21T09:36:59;5.93;;;1.20;;
36257;SDS011;22294;52.044;4.582;2022-09-21T09:39:35;6.80;;;1.83;;
36257;SDS011;22294;52.044;4.582;2022-09-21T09:50:31;6.05;;;1.38;;
36257;SDS011;22294;52.044;4.582;2022-09-21T09:53:12;8.50;;;1.80;;
36257;SDS011;22294;52.044;4.582;2022-09-21T09:55:41;6.90;;;1.73;;
36257;SDS011;22294;52.044;4.582;2022-09-21T09:58:21;10.63;;;1.60;;
36257;SDS011;22294;52.044;4.582;2022-09-21T10:00:50;6.85;;;1.25;;
36257;SDS011;22294;52.044;4.582;2022-09-21T10:03:21;4.80;;;1.10;;
36257;SDS011;22294;52.044;4.582;2022-09-21T10:05:48;3.45;;;1.02;;
36257;SDS011;22294;52.044;4.582;2022-09-21T10:08:39;6.43;;;1.48;;
36257;SDS011;22294;52.044;4.582;2022-09-21T10:11:07;4.88;;;1.02;;
36257;SDS011;22294;52.044;4.582;2022-09-21T10:13:34;5.80;;;1.17;;
36257;SDS011;22294;52.044;4.582;2022-09-21T10:16:22;4.60;;;0.95;;
36257;SDS011;22294;52.044;4.582;2022-09-21T10:21:21;7.18;;;1.40;;
36257;SDS011;22294;52.044;4.582;2022-09-21T10:23:48;5.38;;;0.80;;
36257;SDS011;22294;52.044;4.582;2022-09-21T10:26:16;5.20;;;1.30;;
36257;SDS011;22294;52.044;4.582;2022-09-21T10:28:57;2.92;;;0.70;;
36257;SDS011;22294;52.044;4.582;2022-09-21T10:31:25;4.07;;;1.05;;
36257;SDS011;22294;52.044;4.582;2022-09-21T10:34:13;5.43;;;1.20;;
36257;SDS011;22294;52.044;4.582;2022-09-21T10:36:38;2.72;;;1.08;;
36257;SDS011;22294;52.044;4.582;2022-09-21T10:41:50;5.35;;;1.02;;
36257;SDS011;22294;52.044;4.582;2022-09-21T10:44:19;5.28;;;0.80;;
36257;SDS011;22294;52.044;4.582;2022-09-21T10:46:46;4.55;;;0.77;;
36257;SDS011;22294;52.044;4.582;2022-09-21T10:49:14;2.78;;;0.70;;
36257;SDS011;22294;52.044;4.582;2022-09-21T10:51:45;3.05;;;0.82;;
36257;SDS011;22294;52.044;4.582;2022-09-21T10:54:15;4.40;;;1.15;;
36257;SDS011;22294;52.044;4.582;2022-09-21T10:56:59;4.95;;;0.70;;
36257;SDS011;22294;52.044;4.582;2022-09-21T10:59:28;3.67;;;0.90;;
36257;SDS011;22294;52.044;4.582;2022-09-21T11:01:56;5.63;;;0.90;;
36257;SDS011;22294;52.044;4.582;2022-09-21T11:07:16;4.72;;;0.90;;
36257;SDS011;22294;52.044;4.582;2022-09-21T11:09:52;4.10;;;0.90;;
36257;SDS011;22294;52.044;4.582;2022-09-21T11:14:59;4.33;;;1.10;;
36257;SDS011;22294;52.044;4.582;2022-09-21T11:17:51;3.80;;;0.70;;
36257;SDS011;22294;52.044;4.582;2022-09-21T11:25:57;2.72;;;0.60;;
36257;SDS011;22294;52.044;4.582;2022-09-21T11:28:34;4.22;;;0.65;;
36257;SDS011;22294;52.044;4.582;2022-09-21T11:34:10;6.80;;;1.17;;
36257;SDS011;22294;52.044;4.582;2022-09-21T11:40:13;4.57;;;1.60;;
36257;SDS011;22294;52.044;4.582;2022-09-21T11:45:54;4.03;;;0.95;;
36257;SDS011;22294;52.044;4.582;2022-09-21T11:48:29;4.85;;;0.80;;
36257;SDS011;22294;52.044;4.582;2022-09-21T11:59:15;4.43;;;1.00;;
36257;SDS011;22294;52.044;4.582;2022-09-21T12:01:55;7.47;;;0.70;;
36257;SDS011;22294;52.044;4.582;2022-09-21T12:04:41;3.40;;;0.93;;
36257;SDS011;22294;52.044;4.582;2022-09-21T12:15:55;3.70;;;1.00;;
36257;SDS011;22294;52.044;4.582;2022-09-21T12:21:17;2.85;;;1.02;;
36257;SDS011;22294;52.044;4.582;2022-09-21T12:23:47;2.45;;;0.80;;
36257;SDS011;22294;52.044;4.582;2022-09-21T12:26:18;3.33;;;0.80;;
36257;SDS011;22294;52.044;4.582;2022-09-21T12:28:55;4.07;;;0.75;;
36257;SDS011;22294;52.044;4.582;2022-09-21T12:31:29;5.07;;;0.80;;
36257;SDS011;22294;52.044;4.582;2022-09-21T12:39:29;2.75;;;0.82;;
36257;SDS011;22294;52.044;4.582;2022-09-21T12:45:13;2.88;;;0.68;;
36257;SDS011;22294;52.044;4.582;2022-09-21T12:53:19;3.30;;;0.47;;
36257;SDS011;22294;52.044;4.582;2022-09-21T12:56:04;3.53;;;0.68;;
36257;SDS011;22294;52.044;4.582;2022-09-21T13:04:30;2.58;;;0.70;;
36257;SDS011;22294;52.044;4.582;2022-09-21T13:09:43;2.90;;;0.57;;
36257;SDS011;22294;52.044;4.582;2022-09-21T13:12:13;4.57;;;0.63;;
36257;SDS011;22294;52.044;4.582;2022-09-21T13:14:46;1.88;;;0.63;;
36257;SDS011;22294;52.044;4.582;2022-09-21T13:17:25;5.25;;;0.93;;
36257;SDS011;22294;52.044;4.582;2022-09-21T13:19:57;2.80;;;0.88;;
36257;SDS011;22294;52.044;4.582;2022-09-21T13:22:36;2.60;;;0.55;;
36257;SDS011;22294;52.044;4.582;2022-09-21T13:25:06;3.25;;;0.65;;
36257;SDS011;22294;52.044;4.582;2022-09-21T13:38:24;2.83;;;0.70;;
36257;SDS011;22294;52.044;4.582;2022-09-21T13:40:59;4.50;;;0.80;;
36257;SDS011;22294;52.044;4.582;2022-09-21T13:43:48;3.45;;;0.60;;
36257;SDS011;22294;52.044;4.582;2022-09-21T13:48:57;5.88;;;0.85;;
36257;SDS011;22294;52.044;4.582;2022-09-21T13:51:26;2.25;;;0.60;;
36257;SDS011;22294;52.044;4.582;2022-09-21T13:53:53;3.03;;;0.60;;
36257;SDS011;22294;52.044;4.582;2022-09-21T13:56:23;3.40;;;0.70;;
36257;SDS011;22294;52.044;4.582;2022-09-21T13:58:50;2.47;;;0.60;;
36257;SDS011;22294;52.044;4.582;2022-09-21T14:03:50;0.85;;;0.40;;
36257;SDS011;22294;52.044;4.582;2022-09-21T14:06:21;1.67;;;0.55;;
36257;SDS011;22294;52.044;4.582;2022-09-21T14:08:59;1.98;;;0.50;;
36257;SDS011;22294;52.044;4.582;2022-09-21T14:11:30;2.45;;;0.50;;
36257;SDS011;22294;52.044;4.582;2022-09-21T14:14:12;4.88;;;0.98;;
36257;SDS011;22294;52.044;4.582;2022-09-21T14:24:39;2.97;;;0.50;;
36257;SDS011;22294;52.044;4.582;2022-09-21T14:27:49;2.47;;;0.57;;
36257;SDS011;22294;52.044;4.582;2022-09-21T14:30:18;2.33;;;0.60;;
36257;SDS011;22294;52.044;4.582;2022-09-21T14:35:43;7.97;;;0.70;;
36257;SDS011;22294;52.044;4.582;2022-09-21T14:38:24;2.63;;;0.80;;
36257;SDS011;22294;52.044;4.582;2022-09-21T14:41:03;4.88;;;0.75;;
36257;SDS011;22294;52.044;4.582;2022-09-21T14:43:32;3.53;;;0.60;;
36257;SDS011;22294;52.044;4.582;2022-09-21T14:48:40;4.47;;;0.77;;
36257;SDS011;22294;52.044;4.582;2022-09-21T14:51:45;4.05;;;0.77;;
36257;SDS011;22294;52.044;4.582;2022-09-21T15:02:15;3.05;;;0.68;;
36257;SDS011;22294;52.044;4.582;2022-09-21T15:07:25;4.00;;;0.70;;
36257;SDS011;22294;52.044;4.582;2022-09-21T15:10:26;1.58;;;0.43;;
36257;SDS011;22294;52.044;4.582;2022-09-21T15:13:15;3.92;;;0.70;;
36257;SDS011;22294;52.044;4.582;2022-09-21T15:18:47;7.18;;;0.80;;
36257;SDS011;22294;52.044;4.582;2022-09-21T15:21:19;5.07;;;0.70;;
36257;SDS011;22294;52.044;4.582;2022-09-21T15:23:48;1.02;;;0.47;;
36257;SDS011;22294;52.044;4.582;2022-09-21T15:26:16;2.85;;;0.80;;
36257;SDS011;22294;52.044;4.582;2022-09-21T15:28:48;2.80;;;0.70;;
36257;SDS011;22294;52.044;4.582;2022-09-21T15:31:16;0.65;;;0.50;;
36257;SDS011;22294;52.044;4.582;2022-09-21T15:33:43;4.25;;;1.00;;
36257;SDS011;22294;52.044;4.582;2022-09-21T15:36:12;4.43;;;0.63;;
36257;SDS011;22294;52.044;4.582;2022-09-21T15:38:46;3.03;;;0.80;;
36257;SDS011;22294;52.044;4.582;2022-09-21T15:41:17;4.63;;;0.70;;
36257;SDS011;22294;52.044;4.582;2022-09-21T15:46:37;5.55;;;0.73;;
36257;SDS011;22294;52.044;4.582;2022-09-21T15:49:08;3.47;;;0.90;;
36257;SDS011;22294;52.044;4.582;2022-09-21T15:51:40;2.85;;;0.60;;
36257;SDS011;22294;52.044;4.582;2022-09-21T15:57:02;1.48;;;0.60;;
36257;SDS011;22294;52.044;4.582;2022-09-21T15:59:33;3.22;;;0.90;;
36257;SDS011;22294;52.044;4.582;2022-09-21T16:01:59;3.47;;;0.88;;
36257;SDS011;22294;52.044;4.582;2022-09-21T16:04:34;6.32;;;0.95;;
36257;SDS011;22294;52.044;4.582;2022-09-21T16:07:22;4.45;;;0.50;;
36257;SDS011;22294;52.044;4.582;2022-09-21T16:10:02;2.75;;;0.60;;
36257;SDS011;22294;52.044;4.582;2022-09-21T16:12:51;3.08;;;0.68;;
36257;SDS011;22294;52.044;4.582;2022-09-21T16:15:26;3.67;;;0.63;;
36257;SDS011;22294;52.044;4.582;2022-09-21T16:18:01;3.72;;;0.60;;
36257;SDS011;22294;52.044;4.582;2022-09-21T16:20:41;6.45;;;0.75;;
36257;SDS011;22294;52.044;4.582;2022-09-21T16:23:13;4.13;;;0.85;;
36257;SDS011;22294;52.044;4.582;2022-09-21T16:25:40;2.97;;;0.57;;
36257;SDS011;22294;52.044;4.582;2022-09-21T16:33:34;4.82;;;0.70;;
36257;SDS011;22294;52.044;4.582;2022-09-21T16:38:44;1.88;;;0.50;;
36257;SDS011;22294;52.044;4.582;2022-09-21T16:41:17;4.75;;;1.08;;
36257;SDS011;22294;52.044;4.582;2022-09-21T16:43:44;4.25;;;1.65;;
36257;SDS011;22294;52.044;4.582;2022-09-21T16:46:09;5.78;;;1.27;;
36257;SDS011;22294;52.044;4.582;2022-09-21T16:48:35;5.18;;;0.90;;
36257;SDS011;22294;52.044;4.582;2022-09-21T16:51:01;2.65;;;0.70;;
36257;SDS011;22294;52.044;4.582;2022-09-21T16:53:26;3.40;;;0.80;;
36257;SDS011;22294;52.044;4.582;2022-09-21T16:55:52;4.95;;;0.60;;
36257;SDS011;22294;52.044;4.582;2022-09-21T16:58:18;1.88;;;0.70;;
36257;SDS011;22294;52.044;4.582;2022-09-21T17:00:48;5.35;;;0.75;;
36257;SDS011;22294;52.044;4.582;2022-09-21T17:03:17;5.63;;;0.88;;
36257;SDS011;22294;52.044;4.582;2022-09-21T17:05:43;5.03;;;0.90;;
36257;SDS011;22294;52.044;4.582;2022-09-21T17:08:08;4.25;;;1.25;;
36257;SDS011;22294;52.044;4.582;2022-09-21T17:10:40;2.75;;;0.77;;
36257;SDS011;22294;52.044;4.582;2022-09-21T17:13:10;4.57;;;1.00;;
36257;SDS011;22294;52.044;4.582;2022-09-21T17:15:39;5.72;;;1.20;;
36257;SDS011;22294;52.044;4.582;2022-09-21T17:18:09;6.25;;;1.17;;
36257;SDS011;22294;52.044;4.582;2022-09-21T17:20:37;3.30;;;1.25;;
36257;SDS011;22294;52.044;4.582;2022-09-21T17:23:05;5.55;;;1.25;;
36257;SDS011;22294;52.044;4.582;2022-09-21T17:25:32;6.57;;;1.73;;
36257;SDS011;22294;52.044;4.582;2022-09-21T17:27:59;4.22;;;1.10;;
36257;SDS011;22294;52.044;4.582;2022-09-21T17:30:25;4.03;;;0.90;;
36257;SDS011;22294;52.044;4.582;2022-09-21T17:32:51;5.57;;;1.17;;
36257;SDS011;22294;52.044;4.582;2022-09-21T17:37:56;4.65;;;1.00;;
36257;SDS011;22294;52.044;4.582;2022-09-21T17:40:22;3.58;;;1.00;;
36257;SDS011;22294;52.044;4.582;2022-09-21T17:42:48;5.45;;;1.30;;
36257;SDS011;22294;52.044;4.582;2022-09-21T17:47:44;3.03;;;1.25;;
36257;SDS011;22294;52.044;4.582;2022-09-21T17:52:39;3.80;;;0.93;;
36257;SDS011;22294;52.044;4.582;2022-09-21T17:55:34;4.15;;;1.02;;
36257;SDS011;22294;52.044;4.582;2022-09-21T18:03:24;3.97;;;1.05;;
36257;SDS011;22294;52.044;4.582;2022-09-21T18:05:52;6.28;;;1.42;;
36257;SDS011;22294;52.044;4.582;2022-09-21T18:08:21;5.25;;;1.30;;
36257;SDS011;22294;52.044;4.582;2022-09-21T18:11:00;8.85;;;2.20;;
36257;SDS011;22294;52.044;4.582;2022-09-21T18:24:45;3.47;;;1.25;;
36257;SDS011;22294;52.044;4.582;2022-09-21T18:27:11;4.15;;;1.38;;
36257;SDS011;22294;52.044;4.582;2022-09-21T18:29:36;5.07;;;1.25;;
36257;SDS011;22294;52.044;4.582;2022-09-21T18:37:31;5.45;;;1.30;;
36257;SDS011;22294;52.044;4.582;2022-09-21T18:42:56;4.78;;;1.38;;
36257;SDS011;22294;52.044;4.582;2022-09-21T18:45:28;2.97;;;1.02;;
36257;SDS011;22294;52.044;4.582;2022-09-21T18:55:58;5.75;;;1.45;;
36257;SDS011;22294;52.044;4.582;2022-09-21T18:58:24;7.03;;;2.08;;
36257;SDS011;22294;52.044;4.582;2022-09-21T19:00:50;5.97;;;2.63;;
36257;SDS011;22294;52.044;4.582;2022-09-21T19:03:16;7.28;;;2.65;;
36257;SDS011;22294;52.044;4.582;2022-09-21T19:05:45;7.07;;;2.33;;
36257;SDS011;22294;52.044;4.582;2022-09-21T19:10:44;5.15;;;1.85;;
36257;SDS011;22294;52.044;4.582;2022-09-21T19:14:01;4.80;;;1.80;;
36257;SDS011;22294;52.044;4.582;2022-09-21T19:16:30;5.03;;;1.80;;